createdAt,value
2023-03-05T00:01:24.877Z,57.90
2023-03-05T00:03:54.376Z,58.50
2023-03-05T00:06:24.057Z,58.50
2023-03-05T00:08:53.370Z,58.80
2023-03-05T00:11:21.324Z,59.00
2023-03-05T00:13:51.925Z,59.40
2023-03-05T00:16:19.974Z,59.60
2023-03-05T00:18:47.118Z,59.90
2023-03-05T00:21:22.980Z,60.30
2023-03-05T00:23:51.133Z,61.10
2023-03-05T00:26:20.596Z,61.30
2023-03-05T00:28:50.600Z,62.10
2023-03-05T00:31:20.503Z,62.30
2023-03-05T00:33:56.990Z,63.00
2023-03-05T00:36:25.025Z,63.80
2023-03-05T00:38:52.794Z,63.70
2023-03-05T00:41:20.253Z,63.40
2023-03-05T00:43:48.386Z,64.00
2023-03-05T00:46:16.007Z,64.80
2023-03-05T00:48:43.119Z,65.50
2023-03-05T00:51:10.492Z,65.80
2023-03-05T00:53:37.537Z,66.00
2023-03-05T00:56:05.447Z,65.20
2023-03-05T00:58:32.778Z,65.50
2023-03-05T01:01:02.547Z,66.10
2023-03-05T01:03:30.878Z,66.60
2023-03-05T01:05:58.067Z,66.70
2023-03-05T01:08:25.873Z,67.20
2023-03-05T01:10:53.379Z,67.50
2023-03-05T01:13:21.337Z,67.60
2023-03-05T01:15:50.844Z,67.70
2023-03-05T01:18:20.383Z,67.50
2023-03-05T01:20:47.870Z,67.90
2023-03-05T01:23:15.583Z,67.70
2023-03-05T01:25:42.793Z,67.80
2023-03-05T01:28:10.471Z,67.90
2023-03-05T01:30:37.768Z,67.90
2023-03-05T01:33:04.698Z,67.90
2023-03-05T01:35:31.660Z,67.70
2023-03-05T01:37:58.606Z,67.50
2023-03-05T01:40:29.159Z,67.40
2023-03-05T01:43:01.554Z,67.10
2023-03-05T01:45:32.741Z,66.60
2023-03-05T01:48:00.364Z,66.10
2023-03-05T01:50:29.128Z,65.90
2023-03-05T01:53:06.096Z,65.60
2023-03-05T01:55:37.320Z,65.00
2023-03-05T01:58:10.650Z,64.70
2023-03-05T02:00:48.607Z,64.50
2023-03-05T02:03:16.189Z,64.20
2023-03-05T02:05:44.564Z,63.90
2023-03-05T02:08:16.037Z,63.50
2023-03-05T02:10:46.854Z,63.30
2023-03-05T02:13:28.308Z,63.10
2023-03-05T02:16:00.288Z,62.30
2023-03-05T02:18:27.904Z,62.20
2023-03-05T02:20:57.870Z,61.90
2023-03-05T02:23:33.954Z,61.40
2023-03-05T02:26:01.020Z,61.10
2023-03-05T02:28:42.991Z,60.80
2023-03-05T02:31:16.850Z,61.30
2023-03-05T02:33:44.084Z,60.70
2023-03-05T02:36:12.109Z,60.30
2023-03-05T02:38:41.451Z,60.00
2023-03-05T02:41:09.715Z,59.60
2023-03-05T02:43:37.269Z,59.30
2023-03-05T02:46:05.610Z,59.30
2023-03-05T02:48:32.806Z,59.10
2023-03-05T02:51:01.382Z,59.00
2023-03-05T02:53:28.587Z,59.10
2023-03-05T02:55:56.338Z,59.10
2023-03-05T02:58:23.710Z,58.90
2023-03-05T03:00:51.083Z,58.80
2023-03-05T03:03:18.292Z,58.80
2023-03-05T03:05:45.663Z,58.70
2023-03-05T03:08:12.523Z,58.70
2023-03-05T03:10:39.458Z,58.70
2023-03-05T03:13:06.519Z,58.70
2023-03-05T03:15:33.535Z,58.60
2023-03-05T03:18:00.870Z,58.60
2023-03-05T03:20:27.810Z,58.50
2023-03-05T03:22:54.964Z,58.50
2023-03-05T03:25:23.100Z,58.50
2023-03-05T03:27:52.464Z,58.40
2023-03-05T03:30:19.502Z,58.30
2023-03-05T03:32:46.552Z,58.30
2023-03-05T03:35:14.178Z,58.20
2023-03-05T03:37:42.385Z,58.20
2023-03-05T03:40:11.736Z,58.20
2023-03-05T03:42:38.833Z,58.20
2023-03-05T03:45:06.774Z,58.20
2023-03-05T03:47:33.662Z,58.10
2023-03-05T03:50:00.601Z,58.10
2023-03-05T03:52:27.653Z,58.00
2023-03-05T03:55:01.151Z,57.90
2023-03-05T03:57:33.375Z,57.90
2023-03-05T04:00:00.659Z,58.00
2023-03-05T04:02:27.853Z,57.90
2023-03-05T04:04:55.015Z,58.00
2023-03-05T04:07:22.009Z,58.00
2023-03-05T04:09:49.482Z,58.10
2023-03-05T04:12:18.254Z,58.20
2023-03-05T04:14:49.522Z,58.30
2023-03-05T04:17:16.915Z,58.30
2023-03-05T04:19:45.351Z,58.50
2023-03-05T04:22:15.688Z,58.60
2023-03-05T04:24:43.101Z,58.70
2023-03-05T04:27:10.393Z,58.70
2023-03-05T04:29:37.985Z,58.80
2023-03-05T04:32:05.493Z,58.90
2023-03-05T04:34:33.143Z,59.00
2023-03-05T04:37:00.302Z,59.20
2023-03-05T04:39:27.427Z,59.30
2023-03-05T04:41:54.385Z,59.50
2023-03-05T04:44:23.325Z,59.50
2023-03-05T04:46:50.609Z,59.60
2023-03-05T04:49:17.593Z,59.70
2023-03-05T04:51:44.670Z,59.80
2023-03-05T04:54:11.628Z,60.00
2023-03-05T04:56:38.694Z,60.00
2023-03-05T04:59:05.775Z,60.40
2023-03-05T05:01:35.286Z,60.90
2023-03-05T05:04:02.365Z,61.00
2023-03-05T05:06:29.347Z,61.10
2023-03-05T05:08:56.381Z,61.30
2023-03-05T05:11:23.516Z,61.40
2023-03-05T05:13:50.722Z,61.50
2023-03-05T05:16:17.823Z,61.90
2023-03-05T05:18:44.863Z,62.30
2023-03-05T05:21:14.075Z,62.20
2023-03-05T05:23:40.966Z,62.40
2023-03-05T05:26:09.337Z,62.40
2023-03-05T05:28:38.429Z,62.60
2023-03-05T05:31:10.293Z,62.70
2023-03-05T05:33:37.492Z,63.00
2023-03-05T05:36:08.136Z,62.90
2023-03-05T05:38:35.398Z,63.20
2023-03-05T05:41:18.348Z,63.50
2023-03-05T05:43:45.672Z,63.60
2023-03-05T05:46:16.864Z,63.60
2023-03-05T05:48:44.868Z,64.50
2023-03-05T05:51:21.368Z,63.80
2023-03-05T05:53:48.750Z,64.00
2023-03-05T05:56:17.446Z,64.20
2023-03-05T05:58:47.345Z,64.40
2023-03-05T06:01:19.493Z,64.70
2023-03-05T06:03:46.812Z,64.80
2023-03-05T06:06:18.734Z,64.80
2023-03-05T06:08:45.974Z,65.10
2023-03-05T06:11:13.498Z,65.20
2023-03-05T06:13:40.490Z,65.40
2023-03-05T06:16:12.365Z,65.40
2023-03-05T06:18:39.744Z,65.50
2023-03-05T06:21:15.750Z,65.40
2023-03-05T06:23:43.822Z,65.50
2023-03-05T06:26:14.563Z,65.50
2023-03-05T06:28:41.642Z,65.50
2023-03-05T06:31:28.866Z,65.50
2023-03-05T06:34:01.254Z,65.60
2023-03-05T06:36:29.216Z,65.30
2023-03-05T06:38:57.594Z,65.40
2023-03-05T06:41:29.150Z,65.30
2023-03-05T06:43:56.965Z,65.40
2023-03-05T06:46:28.356Z,65.70
2023-03-05T06:48:59.098Z,65.70
2023-03-05T06:51:30.008Z,65.70
2023-03-05T06:54:01.727Z,65.70
2023-03-05T06:56:29.167Z,65.80
2023-03-05T06:58:56.109Z,65.50
2023-03-05T07:01:23.729Z,65.30
2023-03-05T07:03:53.709Z,64.90
2023-03-05T07:06:22.739Z,64.60
2023-03-05T07:08:50.387Z,64.30
2023-03-05T07:11:20.207Z,64.00
2023-03-05T07:13:50.829Z,63.60
2023-03-05T07:16:24.888Z,63.30
2023-03-05T07:18:52.797Z,63.10
2023-03-05T07:21:25.862Z,62.90
2023-03-05T07:23:58.417Z,62.50
2023-03-05T07:26:27.270Z,62.30
2023-03-05T07:28:54.971Z,63.00
2023-03-05T07:31:31.004Z,62.10
2023-03-05T07:34:00.444Z,62.00
2023-03-05T07:36:27.576Z,61.60
2023-03-05T07:38:54.672Z,61.40
2023-03-05T07:41:23.401Z,61.10
2023-03-05T07:43:53.135Z,60.80
2023-03-05T07:46:23.715Z,60.30
2023-03-05T07:48:50.860Z,60.00
2023-03-05T07:51:19.957Z,59.90
2023-03-05T07:53:49.710Z,59.80
2023-03-05T07:56:26.705Z,59.60
2023-03-05T07:58:53.662Z,59.40
2023-03-05T08:01:20.907Z,59.30
2023-03-05T08:03:47.967Z,59.20
2023-03-05T08:06:15.038Z,59.10
2023-03-05T08:08:42.072Z,59.20
2023-03-05T08:11:13.549Z,59.20
2023-03-05T08:13:41.356Z,58.90
2023-03-05T08:16:20.737Z,58.60
2023-03-05T08:18:48.772Z,58.50
2023-03-05T08:21:22.207Z,58.60
2023-03-05T08:23:49.558Z,58.50
2023-03-05T08:26:21.946Z,58.20
2023-03-05T08:28:49.054Z,58.00
2023-03-05T08:31:19.451Z,57.80
2023-03-05T08:33:46.757Z,57.40
2023-03-05T08:36:14.160Z,57.30
2023-03-05T08:38:42.053Z,57.50
2023-03-05T08:41:09.317Z,57.70
2023-03-05T08:43:36.873Z,57.20
2023-03-05T08:46:04.719Z,56.90
2023-03-05T08:48:32.631Z,56.10
2023-03-05T08:51:12.742Z,55.10
2023-03-05T08:53:40.311Z,54.20
2023-03-05T08:56:08.170Z,52.70
2023-03-05T08:58:35.376Z,52.50
2023-03-05T09:01:02.270Z,52.60
2023-03-05T09:03:29.426Z,52.10
2023-03-05T09:06:01.686Z,52.00
2023-03-05T09:08:29.315Z,51.80
2023-03-05T09:10:56.684Z,51.90
2023-03-05T09:13:23.783Z,51.60
2023-03-05T09:16:00.746Z,51.20
2023-03-05T09:18:28.128Z,50.60
2023-03-05T09:20:55.700Z,50.90
2023-03-05T09:23:23.501Z,50.00
2023-03-05T09:25:50.727Z,49.80
2023-03-05T09:28:17.766Z,49.50
2023-03-05T09:30:44.916Z,49.40
2023-03-05T09:33:11.966Z,49.30
2023-03-05T09:35:39.034Z,49.40
2023-03-05T09:38:06.121Z,49.00
2023-03-05T09:41:03.475Z,47.90
2023-03-05T09:44:19.060Z,46.80
2023-03-05T09:47:07.532Z,46.00
2023-03-05T09:50:03.992Z,45.70
2023-03-05T09:52:55.223Z,45.30
2023-03-05T09:55:36.562Z,44.90
2023-03-05T09:58:12.024Z,44.90
2023-03-05T10:00:49.612Z,44.90
2023-03-05T10:03:44.361Z,45.20
2023-03-05T10:06:25.534Z,45.40
2023-03-05T10:09:07.986Z,45.90
2023-03-05T10:12:03.840Z,46.40
2023-03-05T10:14:34.858Z,46.50
2023-03-05T10:17:35.758Z,47.00
2023-03-05T10:20:40.241Z,47.10
2023-03-05T10:23:30.830Z,47.00
2023-03-05T10:26:48.294Z,46.90
2023-03-05T10:29:30.110Z,46.90
2023-03-05T10:32:36.757Z,46.80
2023-03-05T10:35:40.881Z,46.70
2023-03-05T10:38:38.968Z,46.80
2023-03-05T10:41:27.936Z,46.60
2023-03-05T10:44:35.316Z,46.30
2023-03-05T10:47:13.145Z,46.20
2023-03-05T10:49:51.020Z,46.70
2023-03-05T10:52:40.455Z,46.70
2023-03-05T10:55:16.839Z,47.00
2023-03-05T10:57:44.741Z,47.40
2023-03-05T11:00:25.093Z,47.80
2023-03-05T11:03:06.749Z,48.30
2023-03-05T11:05:40.566Z,48.70
2023-03-05T11:08:24.065Z,48.70
2023-03-05T11:11:20.079Z,48.60
2023-03-05T11:14:02.223Z,48.80
2023-03-05T11:16:45.667Z,48.90
2023-03-05T11:19:15.305Z,49.00
2023-03-05T11:21:44.227Z,48.80
2023-03-05T11:24:16.900Z,48.70
2023-03-05T11:26:50.799Z,48.70
2023-03-05T11:29:26.272Z,48.80
2023-03-05T11:31:53.984Z,49.00
2023-03-05T11:34:20.985Z,49.20
2023-03-05T11:36:50.887Z,49.60
2023-03-05T11:39:28.280Z,49.90
2023-03-05T11:42:05.160Z,50.10
2023-03-05T11:44:55.739Z,50.20
2023-03-05T11:47:54.148Z,50.20
2023-03-05T11:50:31.160Z,50.00
2023-03-05T11:53:05.057Z,50.20
2023-03-05T11:55:49.296Z,50.20
2023-03-05T11:58:39.896Z,50.20
2023-03-05T12:01:24.182Z,50.10
2023-03-05T12:03:52.224Z,50.20
2023-03-05T12:06:43.679Z,50.80
2023-03-05T12:09:30.746Z,51.30
2023-03-05T12:12:07.484Z,51.30
2023-03-05T12:14:49.212Z,51.20
2023-03-05T12:17:32.861Z,50.60
2023-03-05T12:20:49.001Z,50.20
2023-03-05T12:23:20.851Z,49.90
2023-03-05T12:25:57.745Z,50.00
2023-03-05T12:28:55.341Z,50.30
2023-03-05T12:31:38.206Z,50.50
2023-03-05T12:34:47.469Z,50.80
2023-03-05T12:37:23.582Z,50.40
2023-03-05T12:40:12.230Z,49.90
2023-03-05T12:42:39.020Z,49.40
2023-03-05T12:45:11.775Z,49.70
2023-03-05T12:47:46.927Z,49.20
2023-03-05T12:50:29.214Z,49.30
2023-03-05T12:53:18.519Z,48.00
2023-03-05T12:55:45.907Z,46.40
2023-03-05T12:58:34.179Z,46.00
2023-03-05T13:01:39.412Z,44.90
2023-03-05T13:04:16.071Z,43.90
2023-03-05T13:06:43.290Z,43.60
2023-03-05T13:09:20.995Z,43.40
2023-03-05T13:11:54.331Z,43.00
2023-03-05T13:14:40.259Z,43.10
2023-03-05T13:17:30.029Z,42.80
2023-03-05T13:19:59.275Z,43.40
2023-03-05T13:22:26.618Z,44.10
2023-03-05T13:25:20.355Z,44.10
2023-03-05T13:27:47.246Z,43.10
2023-03-05T13:30:28.028Z,43.50
2023-03-05T13:33:04.791Z,42.80
2023-03-05T13:35:32.880Z,43.00
2023-03-05T13:38:00.816Z,43.30
2023-03-05T13:40:32.142Z,42.90
2023-03-05T13:43:19.722Z,42.80
2023-03-05T13:45:56.433Z,42.80
2023-03-05T13:48:23.507Z,42.80
2023-03-05T13:50:58.319Z,43.10
2023-03-05T13:53:29.746Z,42.50
2023-03-05T13:56:00.838Z,42.50
2023-03-05T13:58:54.950Z,42.30
2023-03-05T14:01:42.576Z,41.90
2023-03-05T14:04:15.716Z,42.00
2023-03-05T14:06:55.037Z,41.90
2023-03-05T14:09:42.201Z,42.10
2023-03-05T14:12:27.350Z,42.20
2023-03-05T14:14:54.465Z,42.50
2023-03-05T14:17:23.851Z,42.80
2023-03-05T14:19:51.016Z,43.10
2023-03-05T14:22:37.194Z,43.40
2023-03-05T14:25:06.489Z,43.70
2023-03-05T14:27:37.249Z,43.70
2023-03-05T14:30:22.238Z,43.90
2023-03-05T14:32:51.800Z,44.10
2023-03-05T14:35:23.310Z,44.30
2023-03-05T14:37:52.506Z,44.50
2023-03-05T14:40:23.629Z,44.60
2023-03-05T14:43:05.326Z,44.70
2023-03-05T14:45:37.342Z,44.70
2023-03-05T14:48:07.036Z,45.40
2023-03-05T14:50:43.618Z,44.90
2023-03-05T14:53:17.919Z,45.10
2023-03-05T14:55:50.238Z,45.20
2023-03-05T14:58:25.825Z,45.40
2023-03-05T15:00:54.119Z,45.70
2023-03-05T15:03:22.553Z,45.80
2023-03-05T15:05:54.550Z,45.80
2023-03-05T15:08:28.910Z,45.80
2023-03-05T15:10:56.212Z,45.90
2023-03-05T15:13:23.268Z,46.00
2023-03-05T15:15:51.592Z,45.90
2023-03-05T15:18:24.663Z,45.90
2023-03-05T15:20:53.429Z,45.90
2023-03-05T15:23:21.209Z,45.90
2023-03-05T15:25:49.986Z,45.80
2023-03-05T15:28:18.674Z,45.80
2023-03-05T15:30:48.566Z,45.80
2023-03-05T15:33:18.256Z,45.80
2023-03-05T15:35:45.759Z,45.90
2023-03-05T15:38:12.908Z,46.10
2023-03-05T15:40:40.076Z,46.20
2023-03-05T15:43:06.974Z,46.40
2023-03-05T15:45:33.910Z,46.50
2023-03-05T15:48:01.391Z,46.70
2023-03-05T15:50:28.438Z,47.00
2023-03-05T15:52:55.294Z,47.20
2023-03-05T15:55:22.509Z,47.40
2023-03-05T15:57:54.198Z,48.00
2023-03-05T16:00:28.232Z,48.00
2023-03-05T16:02:55.413Z,48.10
2023-03-05T16:05:23.186Z,48.20
2023-03-05T16:07:52.475Z,48.40
2023-03-05T16:10:26.005Z,48.50
2023-03-05T16:12:59.354Z,48.60
2023-03-05T16:15:26.569Z,48.70
2023-03-05T16:17:57.189Z,48.80
2023-03-05T16:20:24.441Z,48.90
2023-03-05T16:22:51.587Z,49.10
2023-03-05T16:25:18.740Z,49.10
2023-03-05T16:27:45.874Z,49.20
2023-03-05T16:30:15.378Z,49.30
2023-03-05T16:32:43.509Z,49.40
2023-03-05T16:35:12.382Z,49.40
2023-03-05T16:37:41.042Z,49.60
2023-03-05T16:40:10.970Z,49.50
2023-03-05T16:42:37.986Z,49.70
2023-03-05T16:45:07.815Z,49.90
2023-03-05T16:47:35.365Z,50.00
2023-03-05T16:50:02.367Z,50.10
2023-03-05T16:52:29.916Z,50.40
2023-03-05T16:54:57.106Z,50.40
2023-03-05T16:57:25.602Z,50.60
2023-03-05T16:59:54.010Z,50.80
2023-03-05T17:02:21.011Z,50.90
2023-03-05T17:04:49.377Z,51.00
2023-03-05T17:07:17.080Z,51.10
2023-03-05T17:09:44.394Z,51.30
2023-03-05T17:12:11.592Z,51.30
2023-03-05T17:14:38.596Z,51.50
2023-03-05T17:17:05.501Z,51.60
2023-03-05T17:19:32.401Z,51.60
2023-03-05T17:21:59.427Z,51.90
2023-03-05T17:24:26.548Z,51.90
2023-03-05T17:26:53.636Z,52.00
2023-03-05T17:29:22.380Z,52.10
2023-03-05T17:31:53.290Z,52.30
2023-03-05T17:34:33.313Z,52.40
2023-03-05T17:37:01.376Z,52.50
2023-03-05T17:39:28.256Z,52.60
2023-03-05T17:41:55.528Z,52.80
2023-03-05T17:44:22.492Z,53.00
2023-03-05T17:46:49.336Z,53.00
2023-03-05T17:49:16.403Z,53.20
2023-03-05T17:51:43.572Z,53.30
2023-03-05T17:54:10.538Z,53.40
2023-03-05T17:56:37.441Z,53.60
2023-03-05T17:59:05.594Z,53.50
2023-03-05T18:01:35.012Z,53.60
2023-03-05T18:04:02.536Z,53.70
2023-03-05T18:06:30.172Z,53.90
2023-03-05T18:08:57.506Z,53.90
2023-03-05T18:11:24.550Z,54.00
2023-03-05T18:13:51.484Z,54.10
2023-03-05T18:16:18.665Z,54.10
2023-03-05T18:18:45.742Z,54.10
2023-03-05T18:21:12.890Z,54.10
2023-03-05T18:23:39.811Z,54.10
2023-03-05T18:26:07.003Z,54.40
2023-03-05T18:28:34.083Z,54.50
2023-03-05T18:31:01.447Z,54.40
2023-03-05T18:33:28.410Z,54.70
2023-03-05T18:35:55.585Z,54.80
2023-03-05T18:38:26.026Z,54.80
2023-03-05T18:40:56.388Z,55.00
2023-03-05T18:43:24.929Z,55.10
2023-03-05T18:45:54.932Z,55.20
2023-03-05T18:48:22.896Z,55.30
2023-03-05T18:50:54.394Z,55.50
2023-03-05T18:53:22.258Z,55.50
2023-03-05T18:55:51.351Z,55.60
2023-03-05T18:58:18.863Z,55.70
2023-03-05T19:00:47.058Z,56.00
2023-03-05T19:03:15.693Z,56.00
2023-03-05T19:05:42.901Z,56.00
2023-03-05T19:08:10.640Z,56.10
2023-03-05T19:10:37.670Z,56.30
2023-03-05T19:13:43.419Z,56.30
2023-03-05T19:16:26.800Z,56.30
2023-03-05T19:19:24.452Z,56.30
2023-03-05T19:22:00.688Z,56.50
2023-03-05T19:24:30.739Z,56.30
2023-03-05T19:27:00.978Z,56.30
2023-03-05T19:29:34.310Z,56.40
2023-03-05T19:32:01.619Z,56.50
2023-03-05T19:34:28.660Z,56.60
2023-03-05T19:36:55.689Z,56.80
2023-03-05T19:39:22.798Z,57.00
2023-03-05T19:41:49.799Z,57.10
2023-03-05T19:44:18.535Z,57.30
2023-03-05T19:46:48.092Z,57.40
2023-03-05T19:49:17.254Z,57.40
2023-03-05T19:51:45.963Z,57.60
2023-03-05T19:54:16.336Z,57.60
2023-03-05T19:56:45.165Z,57.80
2023-03-05T19:59:16.512Z,57.80
2023-03-05T20:01:45.319Z,58.00
2023-03-05T20:04:20.999Z,58.30
2023-03-05T20:06:48.311Z,58.40
2023-03-05T20:09:16.190Z,58.40
2023-03-05T20:11:43.588Z,58.60
2023-03-05T20:14:12.951Z,58.70
2023-03-05T20:16:41.345Z,58.90
2023-03-05T20:19:11.789Z,59.00
2023-03-05T20:21:42.077Z,59.10
2023-03-05T20:24:16.933Z,59.40
2023-03-05T20:26:45.859Z,59.40
2023-03-05T20:29:17.484Z,59.70
2023-03-05T20:31:45.641Z,59.80
2023-03-05T20:34:17.069Z,59.90
2023-03-05T20:36:44.436Z,60.10
2023-03-05T20:39:12.392Z,60.20
2023-03-05T20:41:40.582Z,60.50
2023-03-05T20:44:08.539Z,60.80
2023-03-05T20:47:25.602Z,60.60
2023-03-05T20:50:05.060Z,61.20
2023-03-05T20:52:32.303Z,61.30
2023-03-05T20:54:59.401Z,61.40
2023-03-05T20:57:26.416Z,61.80
2023-03-05T20:59:53.860Z,62.10
2023-03-05T21:02:20.915Z,63.20
2023-03-05T21:04:47.872Z,62.70
2023-03-05T21:07:14.936Z,62.80
2023-03-05T21:09:42.064Z,63.00
2023-03-05T21:12:09.220Z,63.20
2023-03-05T21:14:40.735Z,63.50
2023-03-05T21:17:09.099Z,63.90
2023-03-05T21:19:38.972Z,64.20
2023-03-05T21:22:06.099Z,64.30
2023-03-05T21:25:20.576Z,64.30
2023-03-05T21:28:12.800Z,64.70
2023-03-05T21:30:47.214Z,65.00
2023-03-05T21:33:25.118Z,64.70
2023-03-05T21:35:54.335Z,65.10
2023-03-05T21:38:23.328Z,65.20
2023-03-05T21:40:53.618Z,65.50
2023-03-05T21:43:23.537Z,65.90
2023-03-05T21:45:53.482Z,66.00
2023-03-05T21:48:22.178Z,65.90
2023-03-05T21:50:49.864Z,65.40
2023-03-05T21:53:19.140Z,65.60
2023-03-05T21:56:26.312Z,65.70
2023-03-05T21:58:53.959Z,65.90
2023-03-05T22:01:21.840Z,65.70
2023-03-05T22:03:49.772Z,65.80
2023-03-05T22:06:19.215Z,66.30
2023-03-05T22:08:47.207Z,66.90
2023-03-05T22:11:17.483Z,67.20
2023-03-05T22:13:44.615Z,67.50
2023-03-05T22:16:14.247Z,67.80
2023-03-05T22:18:41.325Z,68.10
2023-03-05T22:21:26.821Z,68.50
2023-03-05T22:23:58.529Z,69.30
2023-03-05T22:26:34.523Z,69.30
2023-03-05T22:29:02.465Z,69.70
2023-03-05T22:31:30.343Z,70.00
2023-03-05T22:33:57.634Z,70.40
2023-03-05T22:36:24.711Z,70.70
2023-03-05T22:38:52.571Z,70.90
2023-03-05T22:41:21.591Z,71.30
2023-03-05T22:43:50.668Z,71.50
2023-03-05T22:46:25.273Z,71.70
2023-03-05T22:48:53.183Z,72.00
2023-03-05T22:51:20.619Z,72.00
2023-03-05T22:53:47.553Z,72.10
2023-03-05T22:56:18.236Z,72.00
2023-03-05T22:58:45.625Z,72.00
2023-03-05T23:01:19.518Z,72.00
2023-03-05T23:04:18.452Z,72.30
2023-03-05T23:07:03.774Z,72.40
2023-03-05T23:09:30.957Z,72.20
2023-03-05T23:11:57.942Z,72.50
2023-03-05T23:14:24.887Z,72.50
2023-03-05T23:16:51.784Z,72.80
2023-03-05T23:19:19.030Z,72.80
2023-03-05T23:21:46.034Z,73.00
2023-03-05T23:24:12.971Z,73.20
2023-03-05T23:26:40.111Z,73.30
2023-03-05T23:29:07.140Z,73.60
2023-03-05T23:31:34.219Z,73.70
2023-03-05T23:34:01.287Z,73.40
2023-03-05T23:36:28.501Z,73.30
2023-03-05T23:38:58.132Z,73.60
2023-03-05T23:41:25.186Z,74.00
2023-03-05T23:43:52.135Z,74.40
2023-03-05T23:46:19.078Z,74.90
2023-03-05T23:48:46.169Z,75.20
2023-03-05T23:51:13.220Z,75.30
2023-03-05T23:53:40.244Z,75.60
2023-03-05T23:56:11.323Z,75.80
2023-03-05T23:58:38.840Z,76.30
